Time;durP1;ratioP1;P1;durP2;ratioP2;P2;SDS_P1;SDS_P2;PMS_P1;PMS_P2;Temp;Humidity;BMP_temperature;BMP_pressure;BME280_temperature;BME280_humidity;BME280_pressure;Samples;Min_cycle;Max_cycle;Signal;HPM_P1;HPM_P2
2021/03/07 00:01:20;;;;;;;10.77;6.53;;;;;;;-0.26;57.80;101330.36;1900409;74;23049;-41
2021/03/07 00:03:47;;;;;;;7.17;4.50;;;;;;;-0.27;57.93;101331.25;1869149;75;21088;-41
2021/03/07 00:06:15;;;;;;;7.73;4.37;;;;;;;-0.26;58.03;101329.48;1870455;75;21124;-41
2021/03/07 00:08:42;;;;;;;7.40;4.70;;;;;;;-0.26;58.10;101328.18;1856663;75;21588;-42
2021/03/07 00:11:12;;;;;;;6.63;4.00;;;;;;;-0.25;58.12;101328.19;1856762;75;21540;-44
2021/03/07 00:13:39;;;;;;;7.80;4.10;;;;;;;-0.24;58.32;101324.69;1847840;75;21100;-52
2021/03/07 00:16:07;;;;;;;6.60;4.23;;;;;;;-0.24;58.33;101322.06;1857393;75;21108;-46
2021/03/07 00:18:35;;;;;;;7.20;4.50;;;;;;;-0.25;58.47;101315.08;1859647;75;21144;-46
2021/03/07 00:21:03;;;;;;;11.47;6.50;;;;;;;-0.25;58.59;101311.59;1863516;75;21152;-46
2021/03/07 00:23:30;;;;;;;10.50;7.10;;;;;;;-0.26;58.68;101304.14;1857040;75;21144;-44
2021/03/07 00:25:59;;;;;;;8.13;5.75;;;;;;;-0.28;58.79;101307.23;1830678;77;21113;-42
2021/03/07 00:28:26;;;;;;;6.70;4.50;;;;;;;-0.27;58.96;101301.09;1831958;76;21207;-43
2021/03/07 00:30:54;;;;;;;8.13;4.77;;;;;;;-0.27;59.06;101302.41;1835975;77;21110;-44
2021/03/07 00:33:21;;;;;;;6.23;4.27;;;;;;;-0.28;59.21;101292.81;1832540;77;21156;-45
2021/03/07 00:35:49;;;;;;;9.70;5.40;;;;;;;-0.28;59.38;101286.25;1830725;77;21160;-46
2021/03/07 00:38:17;;;;;;;10.73;5.50;;;;;;;-0.27;59.40;101288.44;1842912;77;21133;-44
2021/03/07 00:40:45;;;;;;;8.10;5.03;;;;;;;-0.26;59.53;101288.86;1830476;77;21136;-40
2021/03/07 00:43:12;;;;;;;6.20;3.70;;;;;;;-0.25;59.55;101284.06;1846306;77;21101;-44
2021/03/07 00:45:40;;;;;;;8.60;4.67;;;;;;;-0.25;59.65;101279.69;1823838;77;21882;-44
2021/03/07 00:48:08;;;;;;;8.70;5.23;;;;;;;-0.24;59.71;101277.49;1834737;77;21132;-46
2021/03/07 00:50:36;;;;;;;7.80;4.93;;;;;;;-0.22;59.73;101273.56;1830548;76;21144;-45
2021/03/07 00:53:03;;;;;;;6.80;4.80;;;;;;;-0.22;59.71;101271.81;1844552;76;21113;-43
2021/03/07 00:55:31;;;;;;;7.23;4.47;;;;;;;-0.23;59.74;101268.77;1838634;77;21601;-43
2021/03/07 00:57:58;;;;;;;6.80;4.43;;;;;;;-0.23;59.85;101260.91;1836711;76;21570;-43
2021/03/07 01:00:28;;;;;;;7.60;4.50;;;;;;;-0.23;59.88;101256.97;1826106;77;21551;-43
2021/03/07 01:02:56;;;;;;;8.07;4.50;;;;;;;-0.26;59.93;101240.35;1828956;77;21136;-45
2021/03/07 01:05:27;;;;;;;8.30;4.43;;;;;;;-0.30;59.96;101238.19;1781207;78;21154;-46
2021/03/07 01:07:55;;;;;;;6.27;4.20;;;;;;;-0.33;60.11;101229.03;1802354;78;21136;-47
2021/03/07 01:10:28;;;;;;;5.83;4.13;;;;;;;-0.31;60.20;101235.11;1760753;80;21153;-46
2021/03/07 01:12:55;;;;;;;6.87;4.27;;;;;;;-0.31;60.17;101230.31;1776407;79;21177;-45
2021/03/07 01:15:27;;;;;;;6.90;4.67;;;;;;;-0.31;60.20;101222.45;1776536;79;21703;-44
2021/03/07 01:17:56;;;;;;;7.63;4.83;;;;;;;-0.32;60.23;101224.20;1774609;79;22122;-43
2021/03/07 01:20:25;;;;;;;8.43;4.73;;;;;;;-0.34;60.15;101215.47;1773187;79;21137;-41
2021/03/07 01:22:55;;;;;;;6.60;4.60;;;;;;;-0.36;60.21;101206.73;1776463;79;21109;-44
2021/03/07 01:25:26;;;;;;;6.87;4.87;;;;;;;-0.36;60.20;101200.62;1773896;79;21164;-45
2021/03/07 01:27:54;;;;;;;7.47;4.90;;;;;;;-0.38;60.25;101201.05;1769854;79;21642;-42
2021/03/07 01:30:22;;;;;;;7.27;4.13;;;;;;;-0.40;60.33;101194.52;1773262;79;21185;-43
2021/03/07 01:32:50;;;;;;;7.70;4.13;;;;;;;-0.40;60.27;101187.07;1799876;78;21102;-44
2021/03/07 01:35:19;;;;;;;9.43;5.60;;;;;;;-0.40;60.26;101187.07;1777508;80;21204;-46
2021/03/07 01:37:47;;;;;;;8.30;5.07;;;;;;;-0.43;60.32;101178.78;1763716;79;21565;-45
2021/03/07 01:40:26;;;;;;;11.37;6.40;;;;;;;-0.44;60.38;101177.91;1789196;78;21989;-45
2021/03/07 01:42:57;;;;;;;24.27;15.93;;;;;;;-0.44;60.36;101173.98;1791204;78;21203;-45
2021/03/07 01:45:29;;;;;;;10.85;6.10;;;;;;;-0.46;60.37;101172.24;1802977;78;21530;-47
2021/03/07 01:48:01;;;;;;;7.33;4.40;;;;;;;-0.50;60.34;101169.21;1788968;78;21140;-46
2021/03/07 01:50:31;;;;;;;7.00;4.20;;;;;;;-0.51;60.37;101170.06;1804959;78;21672;-44
2021/03/07 01:52:59;;;;;;;9.50;5.07;;;;;;;-0.52;60.46;101169.20;1808422;77;21215;-44
2021/03/07 01:55:28;;;;;;;6.00;4.13;;;;;;;-0.50;60.41;101169.21;1802911;77;21133;-41
2021/03/07 01:57:59;;;;;;;6.83;3.87;;;;;;;-0.49;60.40;101168.33;1760477;80;21627;-42
2021/03/07 02:00:26;;;;;;;8.30;5.85;;;;;;;-0.50;60.40;101166.59;1731398;80;21149;-45
2021/03/07 02:02:54;;;;;;;7.23;4.17;;;;;;;-0.49;60.40;101165.70;1781551;79;21491;-44
2021/03/07 02:05:24;;;;;;;5.90;3.60;;;;;;;-0.50;60.28;101165.28;1755710;80;21139;-45
2021/03/07 02:07:51;;;;;;;6.77;4.63;;;;;;;-0.52;60.29;101156.10;1753629;80;21236;-46
2021/03/07 02:10:26;;;;;;;5.30;3.97;;;;;;;-0.51;60.32;101155.21;1749099;80;21172;-47
2021/03/07 02:12:56;;;;;;;6.00;3.47;;;;;;;-0.49;60.31;101154.78;1793835;79;21129;-46
2021/03/07 02:15:25;;;;;;;5.03;3.70;;;;;;;-0.50;60.26;101147.80;1736030;80;21161;-44
2021/03/07 02:17:54;;;;;;;5.23;3.33;;;;;;;-0.48;60.21;101149.09;1780532;80;21480;-45
2021/03/07 02:20:23;;;;;;;5.50;3.63;;;;;;;-0.46;60.06;101144.28;1750689;79;21151;-44
2021/03/07 02:23:09;;;;;;;5.33;3.87;;;;;;;-0.47;60.05;101141.23;1775068;79;21168;-44
2021/03/07 02:25:37;;;;;;;6.10;3.97;;;;;;;-0.46;59.97;101138.17;1778615;79;21447;-45
2021/03/07 02:28:06;;;;;;;6.30;3.77;;;;;;;-0.47;59.91;101132.51;1775344;79;21166;-46
2021/03/07 02:30:34;;;;;;;6.53;3.57;;;;;;;-0.48;59.95;101126.41;1772952;79;21152;-45
2021/03/07 02:33:27;;;;;;;6.80;3.77;;;;;;;-0.47;59.93;101124.20;1775277;80;21937;-41
2021/03/07 02:36:05;;;;;;;5.67;3.30;;;;;;;-0.47;59.94;101122.03;1758772;79;21164;-43
2021/03/07 02:38:34;;;;;;;7.20;3.90;;;;;;;-0.49;59.96;101118.09;1764145;79;21156;-42
2021/03/07 02:41:02;;;;;;;5.67;3.35;;;;;;;-0.48;59.96;101118.95;1773783;79;21141;-43
2021/03/07 02:43:33;;;;;;;5.93;3.43;;;;;;;-0.48;59.87;101118.95;1773913;79;21136;-45
2021/03/07 02:46:02;;;;;;;6.00;3.63;;;;;;;-0.49;59.76;101115.91;1771057;79;21713;-44
2021/03/07 02:48:31;;;;;;;5.67;3.40;;;;;;;-0.51;59.84;101110.66;1791197;78;21577;-46
2021/03/07 02:50:59;;;;;;;9.47;4.70;;;;;;;-0.51;59.76;101102.80;1756471;80;21164;-46
2021/03/07 02:53:28;;;;;;;6.70;3.83;;;;;;;-0.53;59.69;101096.72;1773612;79;21196;-46
2021/03/07 02:56:00;;;;;;;5.47;3.80;;;;;;;-0.54;59.67;101095.40;1797754;78;21608;-45
2021/03/07 02:58:27;;;;;;;9.13;4.07;;;;;;;-0.54;59.64;101086.23;1750763;80;21160;-46
2021/03/07 03:01:03;;;;;;;5.90;3.77;;;;;;;-0.54;59.55;101075.75;1760322;80;21149;-46
2021/03/07 03:03:40;;;;;;;7.80;4.33;;;;;;;-0.52;59.53;101079.24;1757632;79;21181;-46
2021/03/07 03:06:08;;;;;;;5.90;3.63;;;;;;;-0.57;59.55;101072.70;1760915;80;21558;-45
2021/03/07 03:08:36;;;;;;;5.20;3.90;;;;;;;-0.56;59.49;101059.16;1723804;81;21169;-45
2021/03/07 03:11:04;;;;;;;5.87;3.63;;;;;;;-0.54;59.50;101066.58;1762332;79;21211;-45
2021/03/07 03:13:34;;;;;;;7.10;3.77;;;;;;;-0.53;59.46;101064.37;1766001;80;21149;-45
2021/03/07 03:16:04;;;;;;;5.87;3.77;;;;;;;-0.51;59.34;101057.39;1762415;80;22024;-46
2021/03/07 03:18:34;;;;;;;5.83;3.70;;;;;;;-0.49;59.31;101055.19;1796997;78;21174;-48
2021/03/07 03:21:12;;;;;;;6.23;4.20;;;;;;;-0.48;59.23;101045.58;1765996;79;21654;-44
2021/03/07 03:23:39;;;;;;;6.23;3.77;;;;;;;-0.49;59.19;101039.47;1760064;80;21164;-45
2021/03/07 03:26:09;;;;;;;6.80;3.37;;;;;;;-0.49;59.08;101036.84;1777356;79;21144;-42
2021/03/07 03:28:38;;;;;;;8.67;5.03;;;;;;;-0.49;58.96;101034.23;1776862;79;21164;-45
2021/03/07 03:31:05;;;;;;;5.97;3.87;;;;;;;-0.52;58.95;101025.08;1766542;79;21133;-42
2021/03/07 03:33:33;;;;;;;6.90;4.33;;;;;;;-0.52;58.95;101021.14;1767866;79;21161;-44
2021/03/07 03:36:01;;;;;;;7.77;3.80;;;;;;;-0.51;58.94;101011.08;1778634;79;21164;-41
2021/03/07 03:38:43;;;;;;;6.13;3.97;;;;;;;-0.51;58.77;101007.59;1760980;80;21172;-45
2021/03/07 03:41:10;;;;;;;8.63;5.47;;;;;;;-0.53;58.86;101002.80;1789802;79;21557;-46
2021/03/07 03:43:40;;;;;;;9.37;5.40;;;;;;;-0.52;58.95;100993.63;1769389;79;21267;-43
2021/03/07 03:46:09;;;;;;;6.47;4.60;;;;;;;-0.50;58.87;100994.50;1766347;79;21545;-48
2021/03/07 03:48:40;;;;;;;8.60;5.10;;;;;;;-0.49;58.82;100981.81;1768991;79;21156;-44
2021/03/07 03:51:09;;;;;;;7.35;4.55;;;;;;;-0.49;58.82;100965.23;1749167;80;21132;-46
2021/03/07 03:53:37;;;;;;;8.80;5.07;;;;;;;-0.50;58.79;100966.13;1753204;80;21160;-44
2021/03/07 03:56:05;;;;;;;7.17;4.23;;;;;;;-0.50;58.68;100959.57;1771729;79;21156;-43
2021/03/07 03:58:41;;;;;;;8.80;5.30;;;;;;;-0.51;58.66;100949.95;1767240;79;21217;-46
2021/03/07 04:01:09;;;;;;;6.77;4.33;;;;;;;-0.52;58.61;100951.70;1781529;78;21146;-45
2021/03/07 04:03:37;;;;;;;9.47;4.33;;;;;;;-0.53;58.63;100941.22;1764210;80;21113;-45
2021/03/07 04:06:05;;;;;;;9.80;4.87;;;;;;;-0.53;58.59;100942.11;1754097;79;21137;-44
2021/03/07 04:08:33;;;;;;;6.87;4.27;;;;;;;-0.56;58.52;100938.63;1783257;78;21192;-44
2021/03/07 04:11:01;;;;;;;8.90;5.43;;;;;;;-0.59;58.50;100940.82;1770170;79;21229;-43
2021/03/07 04:13:28;;;;;;;9.03;5.47;;;;;;;-0.59;58.58;100936.89;1758482;80;21156;-44
2021/03/07 04:15:56;;;;;;;8.83;4.70;;;;;;;-0.60;58.66;100939.09;1760717;80;21164;-46
2021/03/07 04:18:26;;;;;;;8.83;5.17;;;;;;;-0.60;58.63;100927.30;1760827;80;21146;-43
2021/03/07 04:20:54;;;;;;;6.43;4.67;;;;;;;-0.60;58.61;100931.67;1777442;79;21165;-44
2021/03/07 04:23:22;;;;;;;8.53;5.30;;;;;;;-0.60;58.61;100918.58;1797917;78;21157;-43
2021/03/07 04:25:49;;;;;;;9.40;5.00;;;;;;;-0.58;58.55;100914.17;1781012;78;21137;-42
2021/03/07 04:28:18;;;;;;;7.80;4.77;;;;;;;-0.57;58.52;100906.31;1777994;79;21127;-42
2021/03/07 04:30:46;;;;;;;7.20;4.30;;;;;;;-0.58;58.50;100893.21;1763285;80;21733;-43
2021/03/07 04:33:13;;;;;;;12.47;5.57;;;;;;;-0.58;58.55;100894.52;1749220;80;21592;-43
2021/03/07 04:35:41;;;;;;;8.63;4.90;;;;;;;-0.61;58.52;100890.17;1766386;79;21154;-43
2021/03/07 04:38:09;;;;;;;7.90;5.07;;;;;;;-0.61;58.56;100877.52;1760380;80;21156;-44
2021/03/07 04:40:37;;;;;;;6.80;4.53;;;;;;;-0.61;58.59;100877.52;1765579;79;21133;-49
2021/03/07 04:43:06;;;;;;;7.77;4.27;;;;;;;-0.63;58.63;100874.03;1764551;80;21406;-49
2021/03/07 04:45:33;;;;;;;7.17;5.10;;;;;;;-0.66;58.70;100873.20;1769110;79;21151;-44
2021/03/07 04:48:01;;;;;;;8.23;4.87;;;;;;;-0.66;58.77;100863.13;1779975;79;21851;-42
2021/03/07 04:50:29;;;;;;;8.90;5.20;;;;;;;-0.63;58.82;100864.86;1757643;80;21153;-43
2021/03/07 04:52:57;;;;;;;8.13;5.23;;;;;;;-0.63;58.86;100860.52;1771308;79;21145;-43
2021/03/07 04:55:24;;;;;;;7.57;5.27;;;;;;;-0.61;58.84;100857.42;1747572;80;21632;-44
2021/03/07 04:57:52;;;;;;;12.03;5.20;;;;;;;-0.61;58.84;100856.55;1752678;80;21152;-43
2021/03/07 05:00:21;;;;;;;10.80;7.77;;;;;;;-0.64;58.92;100861.38;1784367;77;21176;-45
2021/03/07 05:02:49;;;;;;;13.33;8.23;;;;;;;-0.66;59.00;100852.66;1762074;80;21149;-47
2021/03/07 05:05:17;;;;;;;11.43;6.13;;;;;;;-0.67;59.00;100854.41;1762889;80;21620;-44
2021/03/07 05:07:45;;;;;;;6.77;5.20;;;;;;;-0.69;59.09;100853.98;1760976;79;21197;-43
2021/03/07 05:10:12;;;;;;;8.27;5.13;;;;;;;-0.69;59.12;100856.61;1781882;79;21180;-42
2021/03/07 05:12:40;;;;;;;10.73;6.43;;;;;;;-0.71;59.14;100847.88;1788041;78;21145;-45
2021/03/07 05:15:09;;;;;;;10.67;6.67;;;;;;;-0.69;59.19;100854.85;1798724;78;21174;-45
2021/03/07 05:17:36;;;;;;;13.03;6.70;;;;;;;-0.66;59.29;100853.97;1788307;78;21177;-40
2021/03/07 05:20:05;;;;;;;8.90;5.40;;;;;;;-0.63;59.27;100855.28;1759463;80;21675;-42
2021/03/07 05:22:33;;;;;;;10.60;5.90;;;;;;;-0.63;59.29;100855.28;1756291;80;21157;-41
2021/03/07 05:25:00;;;;;;;10.03;6.43;;;;;;;-0.62;59.31;100855.70;1759444;80;21149;-40
2021/03/07 05:27:28;;;;;;;12.37;6.23;;;;;;;-0.61;59.39;100856.55;1772393;79;21959;-43
2021/03/07 05:29:55;;;;;;;10.57;6.67;;;;;;;-0.59;59.39;100849.56;1748218;80;21601;-41
2021/03/07 05:32:23;;;;;;;8.90;5.70;;;;;;;-0.59;59.31;100848.25;1782339;79;21132;-42
2021/03/07 05:34:50;;;;;;;9.67;6.70;;;;;;;-0.58;59.38;100846.95;1753063;79;21185;-41
2021/03/07 05:37:18;;;;;;;8.73;5.30;;;;;;;-0.57;59.50;100843.44;1774401;79;21188;-43
2021/03/07 05:39:46;;;;;;;12.13;6.80;;;;;;;-0.57;59.66;100836.88;1758449;80;21126;-44
2021/03/07 05:42:13;;;;;;;9.33;6.57;;;;;;;-0.54;59.61;100835.98;1772992;79;21134;-40
2021/03/07 05:44:41;;;;;;;9.33;6.27;;;;;;;-0.55;59.67;100824.65;1760584;80;21145;-45
2021/03/07 05:47:09;;;;;;;10.97;6.60;;;;;;;-0.51;59.60;100830.72;1788971;78;21153;-44
2021/03/07 05:49:36;;;;;;;12.23;6.53;;;;;;;-0.49;59.63;100836.38;1788647;78;21149;-43
2021/03/07 05:52:04;;;;;;;11.03;7.70;;;;;;;-0.47;59.64;100837.24;1787138;78;21136;-44
2021/03/07 05:54:32;;;;;;;9.47;6.93;;;;;;;-0.46;59.65;100828.48;1788549;78;21132;-43
2021/03/07 05:57:00;;;;;;;14.10;7.57;;;;;;;-0.41;59.72;100827.59;1787279;78;21133;-44
2021/03/07 05:59:32;;;;;;;11.63;7.37;;;;;;;-0.37;59.74;100816.21;1764044;79;21560;-43
2021/03/07 06:02:00;;;;;;;12.00;7.20;;;;;;;-0.33;59.67;100810.94;1781369;79;21149;-45
2021/03/07 06:04:27;;;;;;;12.17;7.27;;;;;;;-0.30;59.65;100811.35;1775868;79;21145;-45
2021/03/07 06:06:55;;;;;;;10.90;6.77;;;;;;;-0.26;59.84;100809.11;1752303;80;21217;-44
2021/03/07 06:09:27;;;;;;;11.30;8.23;;;;;;;-0.19;59.52;100782.41;1751325;80;21174;-46
2021/03/07 06:11:57;;;;;;;10.77;7.43;;;;;;;-0.16;59.43;100793.73;1800977;78;21133;-45
2021/03/07 06:14:29;;;;;;;12.57;7.63;;;;;;;-0.12;59.45;100788.03;1780583;78;21572;-45
2021/03/07 06:17:12;;;;;;;13.10;9.37;;;;;;;-0.11;59.36;100792.38;1776915;79;21200;-46
2021/03/07 06:20:01;;;;;;;10.33;7.70;;;;;;;-0.07;59.25;100784.91;1768647;79;21177;-45
2021/03/07 06:22:31;;;;;;;10.87;7.80;;;;;;;-0.06;59.13;100783.57;1735455;80;21332;-46
2021/03/07 06:24:59;;;;;;;11.77;8.17;;;;;;;-0.02;59.21;100773.94;1740537;80;21165;-46
2021/03/07 06:27:27;;;;;;;12.10;7.70;;;;;;;0.01;59.07;100773.03;1813015;77;21158;-45
2021/03/07 06:30:02;;;;;;;10.03;7.17;;;;;;;0.04;59.20;100765.99;1805081;77;21156;-46
2021/03/07 06:32:41;;;;;;;10.60;7.53;;;;;;;0.12;59.04;100753.66;1759272;79;22927;-46
2021/03/07 06:35:11;;;;;;;12.27;8.03;;;;;;;0.09;58.92;100749.77;1738432;80;21173;-46
2021/03/07 06:38:03;;;;;;;10.23;7.50;;;;;;;0.13;58.94;100752.79;1740310;82;21162;-47
2021/03/07 06:40:39;;;;;;;11.97;7.20;;;;;;;0.15;58.80;100741.84;1731165;80;21149;-47
2021/03/07 06:43:23;;;;;;;11.77;8.17;;;;;;;0.18;58.72;100739.63;1742339;80;21137;-46
2021/03/07 06:45:53;;;;;;;9.93;7.77;;;;;;;0.20;58.67;100748.31;1732709;80;21106;-58
2021/03/07 06:48:24;;;;;;;11.27;7.90;;;;;;;0.24;58.62;100738.67;1738376;80;21106;-46
2021/03/07 06:50:54;;;;;;;13.00;8.13;;;;;;;0.28;58.58;100735.11;1688291;80;21149;-43
2021/03/07 06:53:34;;;;;;;13.50;7.87;;;;;;;0.32;58.68;100732.44;1740793;81;21154;-46
2021/03/07 06:56:03;;;;;;;11.03;8.73;;;;;;;0.38;58.56;100735.00;1736641;80;21633;-44
2021/03/07 06:58:31;;;;;;;10.33;6.80;;;;;;;0.43;58.44;100731.02;1738111;80;21562;-44
2021/03/07 07:00:59;;;;;;;9.80;7.07;;;;;;;0.47;58.42;100723.50;1737477;80;21098;-45
2021/03/07 07:03:31;;;;;;;9.93;7.07;;;;;;;0.52;58.29;100728.70;1740590;82;21248;-45
2021/03/07 07:05:57;;;;;;;9.78;7.67;;;;;;;0.58;58.27;100725.55;1737261;80;21145;-45
2021/03/07 07:08:45;;;;;;;13.90;8.27;;;;;;;0.64;58.21;100717.58;1742253;80;21114;-46
2021/03/07 07:11:13;;;;;;;14.87;8.45;;;;;;;0.70;58.05;100709.20;1732191;80;21149;-46
2021/03/07 07:13:47;;;;;;;21.30;13.17;;;;;;;0.74;57.88;100701.26;1733977;80;21189;-43
2021/03/07 07:16:26;;;;;;;11.33;7.30;;;;;;;0.79;57.46;100705.14;1737886;82;21143;-44
2021/03/07 07:18:54;;;;;;;8.30;6.33;;;;;;;0.86;57.58;100699.77;1741884;80;21141;-41
2021/03/07 07:21:22;;;;;;;10.73;7.47;;;;;;;0.94;57.66;100687.83;1742496;80;21141;-51
2021/03/07 07:23:49;;;;;;;13.40;8.47;;;;;;;1.03;57.26;100691.63;1745270;80;21106;-45
2021/03/07 07:26:17;;;;;;;13.53;7.83;;;;;;;1.09;57.04;100691.98;1721561;80;21149;-43
2021/03/07 07:28:46;;;;;;;10.53;7.67;;;;;;;1.14;56.93;100676.14;1717563;82;21149;-42
2021/03/07 07:31:20;;;;;;;13.10;8.23;;;;;;;1.20;56.86;100676.89;1716825;82;21190;-41
2021/03/07 07:33:52;;;;;;;11.10;7.77;;;;;;;1.26;56.59;100670.66;1672774;83;21172;-46
2021/03/07 07:36:44;;;;;;;11.07;7.53;;;;;;;1.33;56.34;100660.91;1710799;82;21184;-44
2021/03/07 07:39:15;;;;;;;11.10;8.23;;;;;;;1.39;56.30;100661.69;1713744;82;21138;-39
2021/03/07 07:41:43;;;;;;;12.78;8.78;;;;;;;1.47;55.95;100647.95;1712273;82;21118;-42
2021/03/07 07:44:12;;;;;;;11.85;8.10;;;;;;;1.55;55.61;100645.62;1705606;82;21165;-43
2021/03/07 07:46:59;;;;;;;13.20;7.60;;;;;;;1.61;55.50;100657.33;1702629;82;21173;-42
2021/03/07 07:49:52;;;;;;;11.63;7.30;;;;;;;1.63;55.30;100641.95;1712203;82;21172;-42
2021/03/07 07:52:31;;;;;;;9.98;6.65;;;;;;;1.68;55.08;100639.23;1713197;82;21307;-43
2021/03/07 07:55:08;;;;;;;12.25;8.58;;;;;;;1.75;55.19;100639.99;1710146;82;21149;-43
2021/03/07 07:57:42;;;;;;;15.98;9.45;;;;;;;1.81;54.84;100639.41;1706715;82;21154;-46
2021/03/07 08:00:16;;;;;;;14.60;8.70;;;;;;;1.85;54.78;100629.70;1704932;82;21158;-47
2021/03/07 08:02:49;;;;;;;15.53;9.20;;;;;;;1.91;54.90;100625.16;1672141;84;21153;-42
2021/03/07 08:05:26;;;;;;;13.98;9.13;;;;;;;1.98;54.47;100619.80;1671901;84;21511;-42
2021/03/07 08:08:07;;;;;;;11.22;8.03;;;;;;;2.03;54.44;100619.25;1671185;84;21154;-46
2021/03/07 08:10:47;;;;;;;14.28;9.48;;;;;;;2.11;54.57;100619.94;1706950;82;21154;-45
2021/03/07 08:13:37;;;;;;;11.95;8.00;;;;;;;2.22;54.81;100600.86;1705008;82;21264;-44
2021/03/07 08:16:06;;;;;;;14.85;9.05;;;;;;;2.33;54.31;100593.57;1707858;82;21142;-42
2021/03/07 08:18:55;;;;;;;13.43;8.75;;;;;;;2.42;53.90;100591.62;1704398;82;21114;-47
2021/03/07 08:21:23;;;;;;;9.85;7.40;;;;;;;2.46;53.78;100597.23;1671483;84;21914;-44
2021/03/07 08:24:02;;;;;;;12.13;7.65;;;;;;;2.50;53.96;100583.12;1667231;84;21549;-44
2021/03/07 08:26:50;;;;;;;14.47;8.03;;;;;;;2.57;53.86;100589.94;1661850;84;21158;-44
2021/03/07 08:29:40;;;;;;;10.32;7.87;;;;;;;2.63;53.54;100583.69;1672995;84;21625;-43
2021/03/07 08:32:31;;;;;;;9.73;7.33;;;;;;;2.65;53.31;100577.48;1671985;84;21166;-43
2021/03/07 08:35:20;;;;;;;11.40;7.17;;;;;;;2.67;53.30;100576.11;1672297;84;22380;-44
2021/03/07 08:38:14;;;;;;;10.32;6.85;;;;;;;2.67;53.44;100567.78;1673891;84;21157;-44
2021/03/07 08:40:44;;;;;;;13.40;8.85;;;;;;;2.67;53.33;100553.72;1661988;84;21605;-42
2021/03/07 08:43:28;;;;;;;13.32;7.92;;;;;;;2.64;53.35;100556.44;1705494;82;21580;-42
2021/03/07 08:46:08;;;;;;;16.77;8.75;;;;;;;2.57;53.38;100554.39;1707799;82;21138;-41
2021/03/07 08:48:38;;;;;;;12.47;8.50;;;;;;;2.55;53.66;100546.55;1707887;82;21150;-39
2021/03/07 08:51:07;;;;;;;11.48;8.18;;;;;;;2.58;53.82;100542.52;1708562;82;21181;-41
2021/03/07 08:53:38;;;;;;;11.22;7.60;;;;;;;2.57;53.72;100539.91;1710812;82;21190;-42
2021/03/07 08:56:06;;;;;;;10.75;7.65;;;;;;;2.54;53.79;100546.58;1705897;82;21118;-43
2021/03/07 08:58:34;;;;;;;9.45;6.83;;;;;;;2.54;53.97;100553.16;1703479;82;21149;-45
2021/03/07 09:01:02;;;;;;;10.80;7.28;;;;;;;2.54;53.99;100547.44;1706658;82;21162;-44
2021/03/07 09:03:31;;;;;;;11.40;7.15;;;;;;;2.54;54.02;100554.02;1706972;82;21158;-43
2021/03/07 09:05:58;;;;;;;10.48;7.30;;;;;;;2.55;54.12;100556.23;1704566;82;21112;-45
2021/03/07 09:08:27;;;;;;;11.63;7.70;;;;;;;2.56;54.27;100546.09;1701439;82;21192;-44
2021/03/07 09:10:59;;;;;;;10.58;7.17;;;;;;;2.56;54.29;100546.95;1703202;82;21122;-41
2021/03/07 09:13:27;;;;;;;;;;;;;;;2.57;54.28;100531.59;1706566;82;21162;-41
2021/03/07 09:16:03;;;;;;;9.15;6.47;;;;;;;2.59;54.30;100535.48;1702508;82;20168;-41
2021/03/07 09:18:34;;;;;;;12.45;8.03;;;;;;;2.60;54.42;100536.77;1707529;82;21459;-41
2021/03/07 09:21:08;;;;;;;9.95;6.95;;;;;;;2.64;54.34;100540.19;1704779;82;21128;-41
2021/03/07 09:23:42;;;;;;;9.90;6.58;;;;;;;2.67;54.36;100537.92;1673197;84;21149;-43
2021/03/07 09:26:16;;;;;;;10.20;6.67;;;;;;;2.68;54.21;100531.31;1705165;82;21700;-42
2021/03/07 09:28:50;;;;;;;11.18;6.85;;;;;;;2.71;54.07;100529.05;1706110;82;21142;-43
2021/03/07 09:31:26;;;;;;;9.50;6.75;;;;;;;2.76;53.96;100521.90;1699357;82;21150;-42
2021/03/07 09:33:57;;;;;;;10.43;6.22;;;;;;;2.79;53.62;100511.28;1702060;82;21175;-41
2021/03/07 09:36:26;;;;;;;8.08;6.70;;;;;;;2.81;53.35;100523.50;1699207;82;21130;-41
2021/03/07 09:39:01;;;;;;;8.93;6.47;;;;;;;2.83;53.31;100508.98;1702968;82;21134;-42
2021/03/07 09:41:38;;;;;;;7.15;6.03;;;;;;;2.86;53.49;100507.58;1703113;82;22086;-41
2021/03/07 09:44:12;;;;;;;7.85;6.00;;;;;;;2.91;53.43;100495.16;1704081;82;21193;-41
2021/03/07 09:46:43;;;;;;;8.73;6.08;;;;;;;2.95;53.32;100490.69;1701734;82;21268;-44
2021/03/07 09:49:16;;;;;;;11.88;6.65;;;;;;;3.00;53.14;100498.88;1703695;82;21154;-46
2021/03/07 09:51:43;;;;;;;8.55;5.75;;;;;;;3.03;52.92;100491.34;1702653;82;21299;-44
2021/03/07 09:54:14;;;;;;;8.38;5.65;;;;;;;3.01;52.71;100503.22;1687076;83;21284;-44
2021/03/07 09:56:42;;;;;;;7.03;4.55;;;;;;;3.01;52.97;100498.41;1704272;82;21170;-44
2021/03/07 09:59:16;;;;;;;7.70;5.75;;;;;;;3.04;52.86;100498.32;1702718;82;21186;-44
2021/03/07 10:01:50;;;;;;;6.90;5.87;;;;;;;3.06;52.98;100484.66;1706789;82;21146;-43
2021/03/07 10:04:41;;;;;;;7.75;5.58;;;;;;;3.06;52.87;100493.88;1704360;82;21134;-45
2021/03/07 10:07:18;;;;;;;9.98;6.80;;;;;;;3.08;52.73;100491.22;1706971;82;21142;-44
2021/03/07 10:10:11;;;;;;;9.88;5.87;;;;;;;3.06;52.69;100496.97;1703536;82;21145;-43
2021/03/07 10:12:54;;;;;;;10.93;7.40;;;;;;;3.03;52.81;100488.70;1706680;82;21158;-43
2021/03/07 10:15:32;;;;;;;13.85;8.50;;;;;;;3.01;53.06;100488.73;1706707;82;21158;-44
2021/03/07 10:18:02;;;;;;;14.68;7.28;;;;;;;3.01;52.89;100478.65;1706458;82;21130;-44
2021/03/07 10:20:39;;;;;;;10.33;5.90;;;;;;;3.01;53.02;100475.55;1702569;82;21126;-42
2021/03/07 10:23:07;;;;;;;9.15;5.95;;;;;;;3.02;53.04;100479.05;1706447;82;21158;-42
2021/03/07 10:25:38;;;;;;;9.15;4.92;;;;;;;3.02;53.12;100469.40;1704596;82;21130;-41
2021/03/07 10:28:10;;;;;;;8.20;5.80;;;;;;;3.05;53.29;100469.77;1707994;82;21147;-43
2021/03/07 10:30:42;;;;;;;8.18;5.42;;;;;;;3.06;53.31;100467.98;1703912;82;21645;-42
2021/03/07 10:33:23;;;;;;;8.88;6.12;;;;;;;3.09;53.31;100463.95;1702452;82;21130;-43
2021/03/07 10:36:05;;;;;;;9.40;5.55;;;;;;;3.10;53.21;100465.66;1707251;82;21145;-42
2021/03/07 10:38:42;;;;;;;8.73;5.45;;;;;;;3.10;53.27;100457.33;1714761;82;21162;-42
2021/03/07 10:41:30;;;;;;;7.28;4.72;;;;;;;3.14;53.24;100447.55;1718890;82;21192;-53
2021/03/07 10:44:04;;;;;;;9.18;6.03;;;;;;;3.14;53.12;100449.72;1720383;82;21578;-52
2021/03/07 10:46:41;;;;;;;7.45;5.28;;;;;;;3.15;53.22;100447.95;1685718;84;21169;-44
2021/03/07 10:49:11;;;;;;;6.47;5.03;;;;;;;3.16;53.30;100440.47;1722547;82;21138;-43
2021/03/07 10:51:39;;;;;;;7.03;5.05;;;;;;;3.17;53.28;100440.41;1721763;82;21170;-43
2021/03/07 10:54:07;;;;;;;8.60;5.20;;;;;;;3.21;53.26;100449.11;1675881;83;21149;-42
2021/03/07 10:56:37;;;;;;;8.25;4.72;;;;;;;3.24;53.25;100436.69;1720895;82;21281;-41
2021/03/07 10:59:06;;;;;;;8.90;5.55;;;;;;;3.28;53.08;100445.39;1692696;82;21550;-43
2021/03/07 11:01:41;;;;;;;10.53;7.28;;;;;;;3.28;53.12;100438.80;1715578;82;21191;-44
2021/03/07 11:04:24;;;;;;;10.23;5.78;;;;;;;3.32;53.11;100434.29;1720531;82;21162;-44
2021/03/07 11:06:56;;;;;;;8.93;4.95;;;;;;;3.36;53.09;100426.72;1720471;82;21142;-42
2021/03/07 11:09:23;;;;;;;5.97;4.42;;;;;;;3.36;52.74;100414.84;1715721;82;21714;-43
2021/03/07 11:11:51;;;;;;;6.25;4.87;;;;;;;3.33;52.44;100413.63;1718289;82;21157;-42
2021/03/07 11:14:19;;;;;;;6.33;4.75;;;;;;;3.34;52.61;100403.48;1721471;82;21565;-42
2021/03/07 11:16:50;;;;;;;6.50;4.20;;;;;;;3.31;51.95;100405.75;1719601;82;21149;-43
2021/03/07 11:19:20;;;;;;;9.63;6.42;;;;;;;3.30;52.09;100408.00;1721261;82;21271;-45
2021/03/07 11:21:48;;;;;;;10.32;6.20;;;;;;;3.31;52.07;100402.27;1717886;82;21145;-44
2021/03/07 11:24:16;;;;;;;8.25;4.55;;;;;;;3.33;51.97;100401.31;1722073;82;21145;-44
2021/03/07 11:26:44;;;;;;;7.37;5.62;;;;;;;3.37;52.08;100401.60;1722833;82;21496;-43
2021/03/07 11:29:12;;;;;;;11.73;5.72;;;;;;;3.38;51.76;100399.86;1721527;82;21535;-45
2021/03/07 11:31:40;;;;;;;13.05;8.08;;;;;;;3.39;51.95;100392.34;1721184;82;21573;-46
2021/03/07 11:34:08;;;;;;;6.92;5.03;;;;;;;3.41;52.10;100390.06;1695081;83;21640;-45
2021/03/07 11:36:36;;;;;;;8.20;5.08;;;;;;;3.43;52.04;100380.81;1720498;82;21170;-46
2021/03/07 11:39:05;;;;;;;6.55;4.10;;;;;;;3.41;51.96;100379.52;1709117;82;21167;-42
2021/03/07 11:41:33;;;;;;;7.10;5.65;;;;;;;3.44;52.06;100378.10;1713690;82;21177;-43
2021/03/07 11:44:01;;;;;;;5.87;4.05;;;;;;;3.45;52.10;100380.28;1712842;83;21643;-44
2021/03/07 11:46:29;;;;;;;8.00;4.70;;;;;;;3.46;52.12;100374.11;1714062;82;21165;-43